RELACIONES PÚBLICAS

27/12/2017PERSPECTIVAS CLIMÁTICAS PARA ENERO – FEBRERO - MARZO 2017  Se adjunta el Informe de Perspectivas Climáticas para el trimestre Enero, Febrero y Marzo del 2017.http://meteorologia.gub.uy/ServCli/tendenciasClimaticas

Productos aeronáuticos

  • SIGMET
  • METAR / SPECI
  • TAF
  • AIREP
  • Aviso de aeródromo
  • Pronárea
  • Carta superficie
Fecha : 18/01/2017
FTUY 01 SUMU 18 23 30
SUMU TAF 182330Z 1900/1924 14012KT CAVOK TX33/1918Z TN19/1909Z BECMG 1902/1904 04015KT BECMG 1909/1911 36015KT BECMG 1918/1620 12010KT SCT030 SCT200=
SULS TAF 182330Z 1900/1924 09010KT CAVOK TX33/1918Z TN19/1909Z BECMG 1902/1904 02010KT BECMG 1909/1911 36010KT BECMG 1918/1620 12010KT SCT030 SCT200=
SUAA TAF 182330Z 1900/1924 14012KT CAVOK TX33/1918Z TN19/1909Z BECMG 1902/1904 04015KT BECMG 1909/1911 36015KT BECMG 1918/1620 12010KT SCT030 SCT200=
SUCA TAF 182330Z 1900/1924 14012KT CAVOK TX33/1918Z TN19/1909Z BECMG 1902/1904 04020KT BECMG 1909/1911 36015KT BECMG 1918/1620 12010KT SCT030 SCT200= =
SUDU TAF 182330Z 1900/1924 15008KT 9999 FEW030 TX33/1918Z TN18/1909Z BECMG 1902/1904 09012KT CAVOK=
SUSO TAF 182330Z 1900/1924 17010KT 9999 SCT030 TX36/1918Z TN23/1909Z BECMG 1823/1901 09008KT BECMG 1910/1912 02015KT CAVOK=
SURV TAF 182330Z 1900/1924 12010KT 9999 SCT030 TX34/1918Z TN17/1909Z BECMG 1823/1901 09010KT CAVOK PROB30 TEMPO 1909/1911 5000 BR NSC=

Predictor : Ana Olivera


Mensajes TAF vigentes - Internacionales


Argentina
TAF SAME 182300Z 1900/1924 14010KT 9999 FEW040 TX36/1920Z TN22/1910Z
TAF SABE 182300Z 1900/1924 11010KT CAVOK TX31/1918Z TN21/1909Z BECMG 1905/1907 02015KT
TAF SAAR 182300Z 1900/1924 09005KT CAVOK TX35/1918Z TN21/1909Z BECMG 1906/1908 02005KT BECMG 1918/1920 36015KT
TAF SACO 182300Z 1900/1924 05010KT CAVOK TX37/1918Z TN23/1910Z BECMG 1903/1907 32005KT CAVOK BECMG 1913/1917 36015G25KT CAVOK
TAF SAEZ 182300Z 1900/1924 06010KT CAVOK TX34/1919Z TN21/1909Z BECMG 1905/1908 03008KT BECMG 1912/1915 36015KT 9999 FEW045TCU PROB30 1921/1924 8000 SHRA
Bolivia
TAF SLLP 182230Z 1900/1924 08006KT 9999 SCT015 FEW017CB TX17/1920Z TN06/1910Z BECMG 1905/1907 4000 VCFG FEW002 SCT010 BECMG 1912/1915 14008KT 9999 NSW SCT015 FEW017CB TEMPO 1918/1922 8000 VCSH
Brasil
TAF SBFI 182215Z 1900/1924 16005KT CAVOK TN21/1908Z TX34/1918Z RMK PE B
TAF SBPA 182215Z 1900/1924 12007KT 9999 SCT030 TN19/1908Z TX27/1918Z BECMG 1902/1904 BKN020 TEMPO 1906/1912 BKN006 BKN020 BECMG 1912/1914 SCT03 0 RMK PEB
TAF SBFL 182215Z 1900/1924 18012KT 9999 SCT030 TN22/1908Z TX27/1918Z BECMG 1902/1904 BKN020 BECMG 1912/1914 SCT025 RMK PEB
TAF SBBR 182200Z 1900/1924 00000KT 8000 FEW030 TN18/1906Z TX27/1916Z PROB40 TEMPO 1900/1906 RA BECMG 1913/1915 07007KT PROB40 1914/1917 12010KT SHRA BKN030 FEW040TCU PROB40 TEMPO 1918/1923 TSRA BKN015 FEW030CB RMK PDB
TAF SBSP 182112Z 1900/1924 34007KT 9999 BKN020 TN20/1908Z TX24/1919Z PROB30 1900/1903 6000 TSRA BKN007 FEW035CB BECMG 1906/1908 22010KT TEMPO 1909/1916 4000 TSRA BR BKN013 FEW040CB PROB40 1916/1922 20010KT 4000 TSRA BR BKN017 FEW045CB RMK PHN
TAF SBGR 182112Z 1900/2006 34006KT 9999 BKN030 TN20/1908Z TX24/1919Z PROB30 1900/1903 6000 TSRA BKN009 FEW040CB BECMG 1906/1908 23010KT TEMPO 1909/1916 5000 TSRA BKN015 FEW040CB PROB40 1916/1922 20010KT 4000 RA BR BKN017 BECMG 2003/2005 18005KT RMK PHN
TAF SBRJ 181500Z 1818/1906 13013KT 9999 FEW025TCU TX37/1818Z TN26/1906Z BECMG 1821/1823 33007KT SCT020 RMK PGU
Colombia
TAF SKBO 182300Z 1900/1924 34004KT 9000 BKN017 SCT090 TEMPO 1900/1905 7000 DZRA VCFG SCT017TCU TEMPO 1908/1913 6000 VCFG DZ SCT017 PROB40 1910/1912 2000 BR SCT015 TEMPO 1918/1923 26008KT SCT020TCU PROB40 1919/1922 7000 DZRA SCT018TCU TX20/1918Z TN10/1911Z
Chile
TAF SCEL 182220Z 1900/1924 21012KT CAVOK TX34/1919Z TN15/1910Z BECMG 1902/1904 15008KT TEMPO 1909/1912 VRB02KT 7000 NSC BECMG 1915/1917 19008KT BECMG 1919/1921 21015KT
TAF SCCI 182218Z 1900/2000 27018G30KT 9999 SCT040 TN09/1904Z TX16/1918Z TEMPO 1902/1904 30010KT BECMG 1905/1907 30018G30KT TEMPO 1907/1911 9000 -SHRA BKN030 BECMG 1910/1912 32018G28KT TEMPO 1916/1921 9000 -SHRA BKN035 BECMG 1919/1921 33010KT
Ecuador
SEQM 182215Z 1900/1924 04003KT 9999 SCT033 FM190500 00000KT 9999 FEW005 BKN020 FM191200 VRB03KT 9999 SCT033 BECMG 1918/1921 36012KT TX23/1919Z TN10/1910Z
EEUU
KMIA 182339Z 1900/1924 VRB05KT P6SM SKC FM191600 16007KT P6SM SKC
KIAD 182338Z 1900/2006 32011KT P6SM SCT045 FM190200 32007KT P6SM SCT045 FM190600 31004KT P6SM SCT025 BKN035 FM191300 31005KT P6SM SCT250
KDCA 182338Z 1900/1924 34012KT P6SM SCT045 FM190600 32006KT P6SM SCT025 BKN040 FM191300 32006KT P6SM SCT250 FM191900 28006KT P6SM SCT150
KJFK 182322Z 1900/2006 35009KT P6SM BKN015 OVC030 FM190600 33006KT P6SM SCT025 BKN040 FM191300 31008KT P6SM SCT025 FM200000 34007KT P6SM FEW025
KLGA 182322Z 1900/1924 35007KT P6SM BKN015 OVC030 FM190600 33006KT P6SM SCT025 BKN040 FM191300 32007KT P6SM SCT025
España
TAF LEMD 182300Z 1900/2006 02008KT CAVOK TX08/1915Z TNM05/1907Z TEMPO 1912/2006 03015G25KT PROB30 TEMPO 2000/2006 4000 SNRA
TAF LEBL 182300Z 1900/1924 34009KT 9999 FEW040 TX12/1912Z TN02/1906Z PROB30 TEMPO 1902/1909 33010G22KT BECMG 1910/1913 05018KT TEMPO 1912/1924 05020G32KT
Francia
TAF LFPO 182300Z 1900/2006 03009KT CAVOK
Inglaterra
TAF EGLL 182247Z 1900/2006 VRB03KT CAVOK TEMPO 1900/1910 8000 PROB30 TEMPO 1906/1909 4500 BR TEMPO 1920/2006 7000
Panamá
TAF MPTO 182300Z 1900/2006 04008KT 9999 FEW020 TEMPO 1906/1910 00000KT CAVOK
Paraguay
TAF SGAS 182200Z 1900/2000 19010KT CAVOK TX36/1919Z TN22/1909Z BECMG 1914/1917 17005KT 9999 SCT033 BECMG 1918/1921 11008KT 9999 BKN027 BECMG 2000/2002 CAVOK

* Datos extraidos del Text DataServer de la NOAA (NOAA TEXT DATA SERVER)

Instituto Uruguayo de Meteorología

Dr. Javier Barrios Amorín 1488 - CP 11200
1895 int 108

Montevideo - Uruguay